createdAt,value
2019-04-24T00:06:10.643Z,16.00
2019-04-24T00:08:40.107Z,16.00
2019-04-24T00:16:39.110Z,16.00
2019-04-24T00:21:53.067Z,15.80
2019-04-24T00:24:39.562Z,15.80
2019-04-24T00:26:53.526Z,15.60
2019-04-24T00:32:02.799Z,15.30
2019-04-24T00:37:14.647Z,15.00
2019-04-24T00:39:40.283Z,14.90
2019-04-24T00:42:21.764Z,14.90
2019-04-24T00:44:53.823Z,14.80
2019-04-24T00:47:22.706Z,14.80
2019-04-24T00:49:51.814Z,14.70
2019-04-24T00:55:05.463Z,14.60
2019-04-24T01:00:03.050Z,14.50
2019-04-24T01:02:50.140Z,14.60
2019-04-24T01:05:30.183Z,14.70
2019-04-24T01:08:02.095Z,14.70
2019-04-24T01:13:11.016Z,14.70
2019-04-24T01:18:07.793Z,14.60
2019-04-24T01:20:41.234Z,14.50
2019-04-24T01:23:16.748Z,14.40
2019-04-24T01:25:54.991Z,14.40
2019-04-24T01:28:44.437Z,14.30
2019-04-24T01:33:35.002Z,14.30
2019-04-24T01:36:22.950Z,14.30
2019-04-24T01:38:51.715Z,14.20
2019-04-24T01:41:19.171Z,14.10
2019-04-24T01:46:26.641Z,14.10
2019-04-24T01:51:43.074Z,13.80
2019-04-24T01:54:30.485Z,13.80
2019-04-24T01:56:51.450Z,13.80
2019-04-24T02:01:51.601Z,13.80
2019-04-24T02:04:35.576Z,13.80
2019-04-24T02:07:08.909Z,13.80
2019-04-24T02:28:26.000Z,13.60
2019-04-24T02:33:44.226Z,13.60
2019-04-24T02:38:52.878Z,13.50
2019-04-24T02:51:24.358Z,13.40
2019-04-24T02:54:23.736Z,13.30
2019-04-24T02:56:36.074Z,13.20
2019-04-24T03:01:44.615Z,13.20
2019-04-24T03:04:28.533Z,13.20
2019-04-24T03:07:06.364Z,13.30
2019-04-24T03:09:29.097Z,13.20
2019-04-24T03:12:44.683Z,13.20
2019-04-24T03:14:48.979Z,13.00
2019-04-24T03:19:49.584Z,12.90
2019-04-24T03:22:34.649Z,13.00
2019-04-24T03:27:51.861Z,13.10
2019-04-24T03:45:42.733Z,13.10
2019-04-24T04:00:59.796Z,12.80
2019-04-24T04:03:50.777Z,12.80
2019-04-24T04:06:10.865Z,12.80
2019-04-24T04:09:03.604Z,12.80
2019-04-24T04:11:19.779Z,12.70
2019-04-24T04:14:04.126Z,12.80
2019-04-24T04:16:50.008Z,12.90
2019-04-24T04:37:24.585Z,13.00
2019-04-24T04:39:54.992Z,12.90
2019-04-24T04:44:55.054Z,12.80
2019-04-24T05:03:41.796Z,13.00
2019-04-24T05:11:34.584Z,13.00
2019-04-24T05:16:49.077Z,13.10
2019-04-24T05:21:54.611Z,13.20
2019-04-24T05:24:17.964Z,13.30
2019-04-24T05:37:53.517Z,14.30
2019-04-24T05:40:19.240Z,14.30
2019-04-24T05:45:34.227Z,14.40
2019-04-24T05:47:59.575Z,14.40
2019-04-24T05:50:55.984Z,14.50
2019-04-24T05:53:12.258Z,14.70
2019-04-24T05:58:21.259Z,14.70
2019-04-24T06:01:06.359Z,14.70
2019-04-24T06:04:06.883Z,14.70
2019-04-24T06:06:38.876Z,14.70
2019-04-24T06:09:17.325Z,14.60
2019-04-24T06:14:21.275Z,14.70
2019-04-24T06:16:58.100Z,15.00
2019-04-24T06:19:51.341Z,15.50
2019-04-24T06:24:37.758Z,15.70
2019-04-24T06:27:18.605Z,16.00
2019-04-24T06:30:17.265Z,16.00
2019-04-24T06:35:36.290Z,15.80
2019-04-24T06:40:26.871Z,15.70
2019-04-24T06:42:58.342Z,15.70
2019-04-24T06:45:36.188Z,15.80
2019-04-24T06:55:46.877Z,16.30
2019-04-24T06:58:26.024Z,16.40
2019-04-24T07:00:50.185Z,16.40
2019-04-24T07:03:33.129Z,16.50
2019-04-24T07:06:12.235Z,16.50
2019-04-24T07:08:36.877Z,16.70
2019-04-24T07:19:12.270Z,17.00
2019-04-24T07:21:52.382Z,17.10
2019-04-24T07:24:30.950Z,17.30
2019-04-24T07:27:01.673Z,17.40
2019-04-24T07:29:45.437Z,17.40
2019-04-24T07:32:23.783Z,17.50
2019-04-24T07:35:01.959Z,17.50
2019-04-24T07:40:05.987Z,17.90
2019-04-24T07:42:44.493Z,17.80
2019-04-24T07:45:25.975Z,18.00
2019-04-24T07:47:44.343Z,18.20
2019-04-24T07:51:02.151Z,18.10
2019-04-24T07:53:27.873Z,18.30
2019-04-24T07:56:34.698Z,18.40
2019-04-24T08:06:32.131Z,19.00
2019-04-24T08:09:26.514Z,18.90
2019-04-24T08:11:53.456Z,19.10
2019-04-24T08:14:45.182Z,19.20
2019-04-24T08:17:05.621Z,19.40
2019-04-24T08:19:44.879Z,19.90
2019-04-24T08:22:05.668Z,21.20
2019-04-24T08:27:15.624Z,23.50
2019-04-24T08:29:53.510Z,25.30
2019-04-24T08:32:26.869Z,25.30
2019-04-24T08:34:51.907Z,25.90
2019-04-24T08:53:33.933Z,28.30
2019-04-24T08:55:56.344Z,28.50
2019-04-24T08:58:30.484Z,28.80
2019-04-24T09:03:58.583Z,28.60
2019-04-24T09:06:24.830Z,28.50
2019-04-24T09:09:21.308Z,28.60
2019-04-24T09:12:02.519Z,28.50
2019-04-24T09:17:09.848Z,29.20
2019-04-24T09:19:48.293Z,29.10
2019-04-24T09:22:12.375Z,29.00
2019-04-24T09:25:14.355Z,29.10
2019-04-24T09:27:42.168Z,28.90
2019-04-24T09:40:49.111Z,29.50
2019-04-24T09:45:34.032Z,29.90
2019-04-24T09:50:51.163Z,30.40
2019-04-24T09:53:37.740Z,30.30
2019-04-24T09:58:34.078Z,29.50
2019-04-24T10:03:46.224Z,29.50
2019-04-24T10:08:46.756Z,29.90
2019-04-24T10:16:55.703Z,29.60
2019-04-24T10:19:59.854Z,29.60
2019-04-24T10:22:10.626Z,29.90
2019-04-24T10:24:59.821Z,29.90
2019-04-24T10:27:31.971Z,30.00
2019-04-24T10:43:30.807Z,29.40
2019-04-24T10:45:56.140Z,29.10
2019-04-24T10:48:40.184Z,29.10
2019-04-24T10:51:03.623Z,29.10
2019-04-24T10:56:24.337Z,29.00
2019-04-24T10:58:51.832Z,28.90
2019-04-24T11:07:07.199Z,28.50
2019-04-24T11:09:54.791Z,28.30
2019-04-24T11:12:11.121Z,28.20
2019-04-24T11:14:52.296Z,29.20
2019-04-24T11:20:08.294Z,29.70
2019-04-24T11:22:54.620Z,29.60
2019-04-24T11:28:02.636Z,29.30
2019-04-24T11:30:31.984Z,29.30
2019-04-24T11:33:20.580Z,29.40
2019-04-24T11:36:04.057Z,29.40
2019-04-24T11:39:02.724Z,28.80
2019-04-24T11:44:10.821Z,27.70
2019-04-24T11:47:06.874Z,27.30
2019-04-24T11:49:24.860Z,27.20
2019-04-24T11:52:11.403Z,26.70
2019-04-24T11:54:48.767Z,26.50
2019-04-24T11:57:20.325Z,26.50
2019-04-24T11:59:19.422Z,26.20
2019-04-24T12:29:27.424Z,26.00
2019-04-24T12:32:06.360Z,26.00
2019-04-24T12:34:57.426Z,26.20
2019-04-24T12:37:15.829Z,26.30
2019-04-24T12:40:07.575Z,26.20
2019-04-24T12:42:33.160Z,26.20
2019-04-24T12:44:52.861Z,26.20
2019-04-24T12:47:38.322Z,26.00
2019-04-24T12:52:49.057Z,26.00
2019-04-24T13:08:54.179Z,26.30
2019-04-24T13:11:19.807Z,26.20
2019-04-24T13:13:59.670Z,26.10
2019-04-24T13:16:22.787Z,26.00
2019-04-24T13:21:12.131Z,26.00
2019-04-24T13:23:53.072Z,26.00
2019-04-24T13:26:46.875Z,26.10
2019-04-24T13:42:43.067Z,26.30
2019-04-24T13:48:09.214Z,26.30
2019-04-24T13:55:50.321Z,26.60
2019-04-24T13:58:27.603Z,26.80
2019-04-24T14:01:14.951Z,26.80
2019-04-24T14:06:08.395Z,26.80
2019-04-24T14:11:32.721Z,26.90
2019-04-24T14:32:32.623Z,26.70
2019-04-24T14:34:57.882Z,26.30
2019-04-24T14:37:23.441Z,26.20
2019-04-24T14:40:01.148Z,26.30
2019-04-24T14:45:07.155Z,26.30
2019-04-24T14:47:41.968Z,26.40
2019-04-24T14:52:40.520Z,26.30
2019-04-24T14:55:23.025Z,26.30
2019-04-24T14:57:51.754Z,26.20
2019-04-24T15:00:32.785Z,26.10
2019-04-24T15:02:56.319Z,26.30
2019-04-24T15:05:36.068Z,26.10
2019-04-24T15:08:15.557Z,26.10
2019-04-24T15:13:23.581Z,26.10
2019-04-24T15:16:23.321Z,26.10
2019-04-24T15:18:41.524Z,26.10
2019-04-24T15:20:58.816Z,26.10
2019-04-24T15:23:34.802Z,25.80
2019-04-24T15:28:46.104Z,26.10
2019-04-24T15:31:21.153Z,26.10
2019-04-24T15:33:54.023Z,26.20
2019-04-24T15:36:20.951Z,26.30
2019-04-24T15:38:56.185Z,26.20
2019-04-24T15:44:02.721Z,26.40
2019-04-24T15:46:42.859Z,26.20
2019-04-24T15:49:11.361Z,26.30
2019-04-24T15:51:30.586Z,26.20
2019-04-24T15:53:44.118Z,26.00
2019-04-24T15:56:17.795Z,25.90
2019-04-24T15:59:03.120Z,26.10
2019-04-24T16:02:02.536Z,26.00
2019-04-24T16:06:35.544Z,25.90
2019-04-24T16:09:24.066Z,25.90
2019-04-24T16:32:23.517Z,25.70
2019-04-24T16:34:43.191Z,25.70
2019-04-24T16:37:52.200Z,25.70
2019-04-24T16:40:08.836Z,25.70
2019-04-24T16:44:55.416Z,25.60
2019-04-24T16:47:57.730Z,25.50
2019-04-24T16:50:27.918Z,25.50
2019-04-24T16:55:18.956Z,25.50
2019-04-24T16:57:59.551Z,25.50
2019-04-24T17:00:38.562Z,25.60
2019-04-24T17:03:02.911Z,24.40
2019-04-24T17:05:31.295Z,22.80
2019-04-24T17:08:06.751Z,21.20
2019-04-24T17:10:41.504Z,19.60
2019-04-24T17:13:13.080Z,19.60
2019-04-24T17:18:29.371Z,19.20
2019-04-24T17:29:03.035Z,18.80
2019-04-24T17:36:17.723Z,18.50
2019-04-24T17:38:40.595Z,18.50
2019-04-24T17:41:21.868Z,18.20
2019-04-24T17:44:21.893Z,17.90
2019-04-24T17:47:04.070Z,17.50
2019-04-24T17:52:01.085Z,16.90
2019-04-24T17:57:04.807Z,16.70
2019-04-24T17:59:12.195Z,16.60
2019-04-24T18:01:45.324Z,16.60
2019-04-24T18:04:19.032Z,16.70
2019-04-24T18:06:52.728Z,16.80
2019-04-24T18:09:27.028Z,16.70
2019-04-24T18:12:02.219Z,16.70
2019-04-24T18:34:14.270Z,15.60
2019-04-24T18:36:46.851Z,15.60
2019-04-24T18:39:21.740Z,15.60
2019-04-24T18:41:54.255Z,15.60
2019-04-24T18:44:27.776Z,15.50
2019-04-24T18:47:02.142Z,15.30
2019-04-24T18:49:35.101Z,15.20
2019-04-24T18:52:08.928Z,15.20
2019-04-24T18:54:43.479Z,15.10
2019-04-24T18:57:15.790Z,15.10
2019-04-24T18:59:51.645Z,15.00
2019-04-24T19:02:23.907Z,14.90
2019-04-24T19:04:57.538Z,14.90
2019-04-24T19:07:31.586Z,15.00
2019-04-24T19:10:07.244Z,15.10
2019-04-24T19:12:41.761Z,15.00
2019-04-24T19:15:15.304Z,15.00
2019-04-24T19:17:54.693Z,14.90
2019-04-24T19:20:23.154Z,14.80
2019-04-24T19:23:02.554Z,14.80
2019-04-24T19:25:31.265Z,14.70
2019-04-24T19:28:03.839Z,14.70
2019-04-24T19:30:37.602Z,14.80
2019-04-24T19:33:11.732Z,14.90
2019-04-24T19:35:45.000Z,14.90
2019-04-24T19:38:19.257Z,14.90
2019-04-24T19:40:53.060Z,14.80
2019-04-24T19:43:26.743Z,14.80
2019-04-24T19:46:01.936Z,14.80
2019-04-24T19:48:34.083Z,14.80
2019-04-24T19:51:07.651Z,14.70
2019-04-24T19:53:43.407Z,14.70
2019-04-24T19:56:15.896Z,14.40
2019-04-24T19:58:50.073Z,14.20
2019-04-24T20:01:23.783Z,14.10
2019-04-24T20:03:57.561Z,14.10
2019-04-24T20:06:32.364Z,13.90
2019-04-24T20:09:06.341Z,13.80
2019-04-24T20:11:41.300Z,13.70
2019-04-24T20:28:11.667Z,13.80
2019-04-24T20:30:46.252Z,13.70
2019-04-24T20:33:20.475Z,13.70
2019-04-24T20:35:53.431Z,13.70
2019-04-24T20:38:27.025Z,13.70
2019-04-24T20:41:00.840Z,13.70
2019-04-24T20:43:34.366Z,13.60
2019-04-24T20:46:08.119Z,13.50
2019-04-24T20:48:42.500Z,13.30
2019-04-24T20:51:16.013Z,13.20
2019-04-24T20:53:48.848Z,13.20
2019-04-24T20:56:23.700Z,13.00
2019-04-24T20:58:56.267Z,12.90
2019-04-24T21:01:31.505Z,12.90
2019-04-24T21:04:03.686Z,13.00
2019-04-24T21:06:37.540Z,13.00
2019-04-24T21:09:27.433Z,13.10
2019-04-24T21:12:01.733Z,13.20
2019-04-24T21:14:34.447Z,13.10
2019-04-24T21:17:08.044Z,13.20
2019-04-24T21:19:42.261Z,13.00
2019-04-24T21:22:15.259Z,12.80
2019-04-24T21:24:49.803Z,12.50
2019-04-24T21:27:23.962Z,12.50
2019-04-24T21:29:57.062Z,12.50
2019-04-24T21:32:31.922Z,12.40
2019-04-24T21:35:04.123Z,12.40
2019-04-24T21:37:37.816Z,12.20
2019-04-24T21:40:11.528Z,12.10
2019-04-24T21:42:45.811Z,11.90
2019-04-24T21:45:19.533Z,11.90
2019-04-24T21:47:53.955Z,12.10
2019-04-24T21:50:28.428Z,12.10
2019-04-24T21:53:01.827Z,12.20
2019-04-24T21:55:35.671Z,12.30
2019-04-24T21:58:09.975Z,12.20
2019-04-24T22:00:59.370Z,12.10
2019-04-24T22:03:33.950Z,11.90
2019-04-24T22:06:07.496Z,11.70
2019-04-24T22:08:41.900Z,11.70
2019-04-24T22:11:15.604Z,11.70
2019-04-24T22:13:49.175Z,11.80
2019-04-24T22:16:23.510Z,11.80
2019-04-24T22:18:57.131Z,11.80
2019-04-24T22:21:31.637Z,12.00
2019-04-24T22:44:10.417Z,12.00
2019-04-24T22:46:43.961Z,12.00
2019-04-24T22:49:17.530Z,12.00
2019-04-24T22:51:52.094Z,12.00
2019-04-24T23:13:46.884Z,12.10
2019-04-24T23:16:22.367Z,12.10
2019-04-24T23:18:55.040Z,12.00
2019-04-24T23:21:40.230Z,12.10
2019-04-24T23:24:13.900Z,12.20
2019-04-24T23:26:48.811Z,12.10
2019-04-24T23:29:24.213Z,12.00
2019-04-24T23:32:03.729Z,12.00
2019-04-24T23:34:37.388Z,12.00
2019-04-24T23:37:11.957Z,12.00
2019-04-24T23:39:44.861Z,12.00
2019-04-24T23:42:18.470Z,11.90
2019-04-24T23:44:52.338Z,11.80
2019-04-24T23:47:26.006Z,11.80
2019-04-24T23:49:59.844Z,11.70
2019-04-24T23:52:33.485Z,11.80
2019-04-24T23:55:07.499Z,11.80
2019-04-24T23:57:41.885Z,11.80
